• Join FlightAware (Why Join?)
  • Login
  • US Flag 
12:55AM EDT


 

Airport Tracker/Info


-or-


 

Live Flight TrackerFlight Track Log ✈ EJA898 ✈ 25-Apr-2013 ✈ KTEB - KCHO

Flight Track Log - Related Links

Times and Time Zones

All times are in EDT time to prevent confusion due to time zone crossing. See the EJA898 flight status page for this flight to view local times or setup timezone preferences in your user account.

Time Position Orientation Groundspeed Altitude Reporting Facility
EDT Latitude Longitude Course Direction KTS MPH feet Rate Location/Type
04:07PM 40.8333 -74.0833 246° West 180 207 900  Level New York TRACON
04:08PM 40.8167 -74.1500 252° West 202 232 1,500 1,260 Climbing New York TRACON
04:09PM 40.8167 -74.2333 270° West 204 235 3,500 2,400 Climbing New York TRACON
04:10PM 40.8333 -74.3000 288° West 254 292 6,400 2,820 Climbing New York TRACON
04:12PM 40.8761 -74.4156 296° West 256 295 10,700 2,820 Climbing New York Center
04:13PM 40.6906 -74.5448 246° West  Level FlightAware Approximate
04:13PM 40.8394 -74.5233 246° West 256 295 13,600  Level New York Center
04:14PM 40.7886 -74.6136 233° Southwest 301 346 16,600 2,580 Climbing New York Center
04:15PM 40.7289 -74.7225 234° Southwest 341 392 18,900 2,100 Climbing New York Center
04:16PM 40.6822 -74.8075 234° Southwest 341 392 20,900 2,040 Climbing New York Center
04:17PM 40.6286 -74.9083 235° Southwest 341 392 23,100 2,160 Climbing New York Center
04:18PM 40.5753 -75.0061 234° Southwest 341 392 25,300 2,220 Climbing New York Center
04:19PM 40.5178 -75.0981 231° Southwest 335 386 27,600 1,320 Climbing New York Center
04:20PM 40.4536 -75.1950 229° Southwest 340 391 28,000 180 Climbing New York Center
04:21PM 40.3936 -75.2975 232° Southwest 346 398 28,000  Level New York Center
04:22PM 40.3272 -75.3964 229° Southwest 358 412 28,000  Level New York Center
04:23PM 40.2606 -75.4981 229° Southwest 363 418 28,000  Level New York Center
04:24PM 40.1842 -75.5853 221° Southwest 369 425 28,000  Level New York Center
04:25PM 40.1075 -75.6722 221° Southwest 369 425 28,000  Level New York Center
04:26PM 40.0289 -75.7617 221° Southwest 375 432 28,000  Level New York Center
04:27PM 39.9478 -75.8533 221° Southwest 380 437 28,000 -540 Level New York Center
04:28PM 39.8908 -75.9603 235° Southwest 380 437 27,000 -1,020 Descending New York Center
04:29PM 39.8358 -76.0722 237° Southwest 375 432 26,100 -1,260 Descending New York Center
04:30PM 39.7853 -76.1794 238° Southwest 362 417 24,600 -1,440 Descending New York Center
04:31PM 39.7281 -76.2856 235° Southwest 357 411 23,200 -1,140 Descending New York Center
04:32PM 39.6378 -76.4189 229° Southwest 369 425 22,000 -540 Descending Washington Center
04:33PM 39.5603 -76.4986 218° Southwest 359 413 22,000  Level Washington Center
04:34PM 39.4761 -76.5836 218° Southwest 373 429 22,000  Level Washington Center
04:35PM 39.3983 -76.6658 219° Southwest 373 429 22,000  Level Washington Center
04:36PM 39.3142 -76.7531 219° Southwest 367 422 22,000  Level Washington Center
04:37PM 39.2322 -76.8350 218° Southwest 367 422 22,000  Level Washington Center
04:38PM 39.1561 -76.9247 222° Southwest 367 422 22,000  Level Washington Center
04:39PM 39.0739 -77.0058 217° Southwest 367 422 22,000  Level Washington Center
04:39PM 39.0500 -77.0333 222° Southwest 366 421 22,000  Level Potomac TRACON
04:40PM 38.9667 -77.1167 218° Southwest 379 436 22,000 -900 Level Potomac TRACON
04:42PM 38.9000 -77.2167 229° Southwest 376 433 20,300 -1,020 Descending Potomac TRACON
04:42PM 38.8500 -77.3000 232° Southwest 348 400 20,000 -720 Descending Potomac TRACON
04:43PM 38.8000 -77.4000 237° Southwest 346 398 19,000 -1,320 Descending Potomac TRACON
04:45PM 38.6908 -77.5678 230° Southwest 363 418 16,400 -1,800 Descending Washington Center
04:46PM 38.6264 -77.6750 232° Southwest 363 418 14,100 -2,280 Descending Washington Center
04:47PM 38.5664 -77.7717 232° Southwest 358 412 11,900 -1,560 Descending Washington Center
04:48PM 38.5061 -77.8653 231° Southwest 358 412 11,000 -540 Descending Washington Center
04:49PM 38.4481 -77.9617 232° Southwest 358 412 10,900 -360 Descending Washington Center
04:51PM 38.3403 -78.1356 232° Southwest 330 380 10,000 -1,260 Descending Washington Center
04:52PM 38.3133 -78.2194 248° West 286 329 7,200 -2,100 Descending Washington Center
04:53PM 38.2950 -78.2981 253° West 256 295 5,900 -1,140 Descending Washington Center
04:54PM 38.2872 -78.3639 261° West 219 252 5,000 -600 Descending Washington Center
04:55PM 38.2714 -78.4136 248° West 190 219 4,700 -780 Descending Washington Center
04:56PM 38.2342 -78.4097 175° South 127 146 3,500 -1,500 Descending Washington Center
04:57PM 38.1961 -78.4242 197° South 133 153 1,700 -1,260 Descending Washington Center
04:58PM 38.1667 -78.4389 201° Southwest 133 153 1,000 -720 Descending Washington Center
05:00PM 38.1333 -78.4500 238° Southwest  Level FlightAware Approximate
05:07PM 38.1386 -78.4529 238° Southwest  Level Estimated
05:08PM 38.1333 -78.4500 238° Southwest  Level FlightAware Approximate
05:09PM 38.1386 -78.4529 238° Southwest  Level Estimated
05:10PM 38.1333 -78.4500 238° Southwest  Level FlightAware Approximate
05:11PM 38.1386 -78.4529 238° Southwest  Level Estimated
05:12PM 38.1333 -78.4500 238° Southwest  Level FlightAware Approximate
05:13PM 38.1386 -78.4529 238° Southwest  Level Estimated